Time;durP1;ratioP1;P1;durP2;ratioP2;P2;SDS_P1;SDS_P2;PMS_P1;PMS_P2;Temp;Humidity;BMP_temperature;BMP_pressure;BME280_temperature;BME280_humidity;BME280_pressure;Samples;Min_cycle;Max_cycle;Signal;HPM_P1;HPM_P2
2021/01/17 00:00:36;;;;;;;135.63;81.53;;;51.50;1664.00;;;;;;4934574;29;20079;-69
2021/01/17 00:03:02;;;;;;;161.05;90.72;;;;;;;;;;4935354;29;20036;-68
2021/01/17 00:05:30;;;;;;;167.13;99.07;;;52.10;1612.80;;;;;;4919433;29;20032;-69
2021/01/17 00:07:57;;;;;;;209.35;111.85;;;52.10;1612.80;;;;;;4914876;29;20029;-69
2021/01/17 00:10:28;;;;;;;189.88;111.85;;;76.90;1587.20;;;;;;4915987;29;20024;-68
2021/01/17 00:12:55;;;;;;;192.88;109.50;;;76.80;1612.80;;;;;;4916006;29;20081;-70
2021/01/17 00:15:21;;;;;;;210.80;116.45;;;76.90;1587.20;;;;;;4914810;29;20067;-70
2021/01/17 00:17:47;;;;;;;198.23;115.50;;;77.20;1561.60;;;;;;4916594;29;20444;-68
2021/01/17 00:20:23;;;;;;;154.32;90.70;;;77.00;1587.20;;;;;;4915827;29;20033;-69
2021/01/17 00:22:50;;;;;;;210.63;119.75;;;77.00;1587.20;;;;;;4915668;29;20029;-69
2021/01/17 00:25:19;;;;;;;185.25;108.28;;;52.10;1638.40;;;;;;4915747;29;20087;-69
2021/01/17 00:27:54;;;;;;;182.45;105.40;;;76.90;1587.20;;;;;;4915569;29;20538;-69
2021/01/17 00:30:24;;;;;;;228.95;132.40;;;77.00;1612.80;;;;;;4915926;29;20103;-68
2021/01/17 00:32:51;;;;;;;264.80;151.18;;;76.80;1612.80;;;;;;4915564;29;20391;-69
2021/01/17 00:35:17;;;;;;;229.00;130.90;;;52.10;1638.40;;;;;;4913664;29;20075;-68
2021/01/17 00:37:43;;;;;;;192.88;111.80;;;52.10;1638.40;;;;;;4915715;29;20071;-68
2021/01/17 00:40:10;;;;;;;207.60;119.85;;;76.90;1638.40;;;;;;4915162;29;20032;-69
2021/01/17 00:42:35;;;;;;;195.68;108.00;;;76.80;1638.40;;;;;;4915867;29;20494;-68
2021/01/17 00:45:01;;;;;;;205.15;115.70;;;76.80;1664.00;;;;;;4915655;29;20164;-70
2021/01/17 00:47:27;;;;;;;157.55;91.20;;;77.10;1612.80;;;;;;4914734;29;20035;-69
2021/01/17 00:49:52;;;;;;;141.05;78.57;;;77.10;1612.80;;;;;;4915514;29;20036;-69
2021/01/17 00:52:22;;;;;;;98.78;57.53;;;77.10;1612.80;;;;;;4915789;29;20068;-69
2021/01/17 00:54:49;;;;;;;79.28;43.83;;;77.10;1612.80;;;;;;4916481;29;20518;-68
2021/01/17 00:57:15;;;;;;;77.35;44.70;;;77.20;1612.80;;;;;;4934874;29;20427;-69
2021/01/17 00:59:41;;;;;;;77.90;43.17;;;;;;;;;;4935233;29;20394;-70
2021/01/17 01:02:08;;;;;;;60.83;33.88;;;77.40;1587.20;;;;;;4935329;28;20024;-70
2021/01/17 01:04:34;;;;;;;63.80;34.65;;;;;;;;;;4933710;29;20498;-70
2021/01/17 01:07:00;;;;;;;61.00;34.22;;;76.90;1612.80;;;;;;4926934;29;20048;-70
2021/01/17 01:09:26;;;;;;;87.50;51.25;;;77.10;1612.80;;;;;;4907945;29;20029;-69
2021/01/17 01:11:52;;;;;;;74.22;42.88;;;77.20;1612.80;;;;;;4906754;29;20079;-70
2021/01/17 01:14:18;;;;;;;73.82;41.92;;;77.20;1587.20;;;;;;4919807;29;20040;-69
2021/01/17 01:16:51;;;;;;;122.95;72.40;;;77.40;1612.80;;;;;;4919420;29;20034;-70
2021/01/17 01:19:17;;;;;;;66.57;37.60;;;77.40;1587.20;;;;;;4919618;29;20032;-69
2021/01/17 01:21:42;;;;;;;75.10;44.80;;;77.30;1587.20;;;;;;4918118;29;20042;-69
2021/01/17 01:24:08;;;;;;;85.82;47.88;;;77.20;1612.80;;;;;;4919254;29;20039;-70
2021/01/17 01:26:36;;;;;;;84.68;49.38;;;77.30;1612.80;;;;;;4919216;29;20024;-70
2021/01/17 01:29:02;;;;;;;79.75;46.85;;;77.30;1587.20;;;;;;4919302;29;20365;-70
2021/01/17 01:31:28;;;;;;;82.78;47.95;;;77.20;1612.80;;;;;;4919679;29;20115;-70
2021/01/17 01:33:53;;;;;;;86.68;49.60;;;77.10;1638.40;;;;;;4919182;29;20087;-69
2021/01/17 01:36:26;;;;;;;88.93;50.80;;;77.10;1664.00;;;;;;4919154;29;20499;-70
2021/01/17 01:38:53;;;;;;;84.32;54.33;;;76.90;1664.00;;;;;;4913285;29;20103;-68
2021/01/17 01:41:19;;;;;;;79.97;49.42;;;77.00;1664.00;;;;;;4906974;29;20104;-68
2021/01/17 01:43:46;;;;;;;85.78;50.28;;;76.80;1664.00;;;;;;4914739;29;20458;-70
2021/01/17 01:46:13;;;;;;;89.60;52.15;;;;;;;;;;4911792;29;20036;-70
2021/01/17 01:48:40;;;;;;;84.60;47.97;;;76.90;1638.40;;;;;;4919027;29;20526;-68
2021/01/17 01:51:06;;;;;;;92.85;50.88;;;51.30;1740.80;;;;;;4918833;29;20024;-68
2021/01/17 01:53:31;;;;;;;56.88;34.53;;;26.10;1817.60;;;;;;4915837;29;20506;-69
2021/01/17 01:56:01;;;;;;;53.53;32.13;;;25.80;1843.20;;;;;;4915494;29;20021;-70
2021/01/17 01:58:27;;;;;;;69.47;36.78;;;0.90;1920.00;;;;;;4918836;29;20475;-69
2021/01/17 02:00:54;;;;;;;133.73;67.82;;;25.60;1894.40;;;;;;4918624;29;20024;-69
2021/01/17 02:03:20;;;;;;;57.97;34.55;;;0.90;1920.00;;;;;;4918917;29;20056;-69
2021/01/17 02:05:46;;;;;;;77.20;42.33;;;25.70;1894.40;;;;;;4918414;29;20040;-69
2021/01/17 02:08:33;;;;;;;37.95;25.10;;;25.70;1868.80;;;;;;4918578;29;20543;-69
2021/01/17 02:11:21;;;;;;;52.60;31.05;;;0.80;1945.60;;;;;;4918710;29;20028;-68
2021/01/17 02:14:19;;;;;;;61.95;34.88;;;0.90;1945.60;;;;;;4918595;29;20036;-67
2021/01/17 02:16:47;;;;;;;47.83;28.55;;;0.80;1920.00;;;;;;4918847;29;20478;-68
2021/01/17 02:19:16;;;;;;;68.50;39.08;;;0.70;1945.60;;;;;;4918351;29;20057;-68
2021/01/17 02:21:53;;;;;;;60.38;34.53;;;0.90;1945.60;;;;;;4918687;29;20424;-69
2021/01/17 02:24:24;;;;;;;42.78;27.25;;;25.90;1894.40;;;;;;4918065;29;20386;-68
2021/01/17 02:26:50;;;;;;;48.00;29.17;;;0.80;1945.60;;;;;;4918275;29;20031;-69
2021/01/17 02:29:16;;;;;;;47.92;28.85;;;0.60;2022.40;;;;;;4918191;29;20032;-70
2021/01/17 02:31:43;;;;;;;40.17;24.20;;;0.60;1996.80;;;;;;4899413;29;20103;-68
2021/01/17 02:34:10;;;;;;;49.85;28.77;;;0.60;1996.80;;;;;;4899052;29;20116;-69
2021/01/17 02:37:01;;;;;;;66.50;39.08;;;0.60;1996.80;;;;;;4899060;29;20044;-69
2021/01/17 02:39:52;;;;;;;71.22;44.38;;;25.80;1894.40;;;;;;4899373;29;20032;-69
2021/01/17 02:42:18;;;;;;;35.67;24.02;;;25.70;1920.00;;;;;;4916773;29;20376;-73
2021/01/17 02:44:44;;;;;;;44.40;28.98;;;0.50;2022.40;;;;;;4917675;29;20039;-71
2021/01/17 02:47:09;;;;;;;37.40;22.98;;;0.60;1996.80;;;;;;4918520;29;20103;-71
2021/01/17 02:49:35;;;;;;;76.78;53.13;;;0.80;1996.80;;;;;;4918260;29;20031;-71
2021/01/17 02:52:06;;;;;;;61.17;42.95;;;26.00;1894.40;;;;;;4917814;29;20068;-71
2021/01/17 02:54:34;;;;;;;60.22;41.70;;;26.10;1868.80;;;;;;4917677;29;20036;-72
2021/01/17 02:57:08;;;;;;;90.20;62.55;;;51.30;1843.20;;;;;;4917376;29;20036;-71
2021/01/17 03:00:12;;;;;;;60.53;45.70;;;51.40;1843.20;;;;;;4918209;29;20028;-74
2021/01/17 03:02:45;;;;;;;58.08;42.15;;;51.70;1817.60;;;;;;4911194;29;20028;-73
2021/01/17 03:05:16;;;;;;;50.88;33.63;;;51.80;1766.40;;;;;;4917463;29;20167;-71
2021/01/17 03:07:47;;;;;;;48.55;30.35;;;51.90;1740.80;;;;;;4918120;29;20079;-72
2021/01/17 03:10:13;;;;;;;58.35;35.20;;;51.90;1715.20;;;;;;4917322;29;20032;-71
2021/01/17 03:12:39;;;;;;;46.30;27.23;;;51.80;1740.80;;;;;;4917704;29;20039;-70
2021/01/17 03:15:06;;;;;;;42.05;25.90;;;51.90;1715.20;;;;;;4917441;29;20036;-71
2021/01/17 03:17:32;;;;;;;39.65;27.65;;;51.90;1715.20;;;;;;4917647;29;20050;-72
2021/01/17 03:19:58;;;;;;;46.90;32.78;;;51.80;1715.20;;;;;;4916734;29;20483;-71
2021/01/17 03:22:24;;;;;;;40.60;25.02;;;52.10;1715.20;;;;;;4917269;29;20052;-72
2021/01/17 03:24:50;;;;;;;48.88;30.17;;;51.90;1715.20;;;;;;4916968;29;20042;-72
2021/01/17 03:27:15;;;;;;;70.05;40.65;;;52.10;1715.20;;;;;;4917178;29;20427;-72
2021/01/17 03:29:41;;;;;;;96.82;52.20;;;76.80;1689.60;;;;;;4917444;29;20032;-72
2021/01/17 03:32:07;;;;;;;58.38;35.67;;;52.10;1689.60;;;;;;4915582;29;20032;-72
2021/01/17 03:34:33;;;;;;;112.10;56.67;;;52.00;1715.20;;;;;;4916670;29;20056;-72
2021/01/17 03:36:58;;;;;;;110.65;55.92;;;76.80;1689.60;;;;;;4916929;29;20032;-72
2021/01/17 03:39:24;;;;;;;62.03;34.35;;;76.90;1689.60;;;;;;4917168;29;20084;-70
2021/01/17 03:41:50;;;;;;;64.50;36.60;;;51.80;1689.60;;;;;;4916895;29;20031;-69
2021/01/17 03:44:15;;;;;;;62.05;32.53;;;51.60;1715.20;;;;;;4916928;29;20020;-69
2021/01/17 03:46:41;;;;;;;50.15;27.52;;;26.50;1766.40;;;;;;4917055;29;20107;-70
2021/01/17 03:49:07;;;;;;;46.67;28.67;;;26.40;1792.00;;;;;;4917029;29;20024;-69
2021/01/17 03:51:32;;;;;;;54.90;34.40;;;26.10;1792.00;;;;;;4916672;29;20036;-70
2021/01/17 03:53:58;;;;;;;64.05;36.78;;;26.40;1817.60;;;;;;4916601;29;20334;-70
2021/01/17 03:56:24;;;;;;;68.88;40.75;;;26.10;1817.60;;;;;;4916861;29;20028;-71
2021/01/17 03:58:50;;;;;;;98.63;54.83;;;26.50;1766.40;;;;;;4916661;29;20028;-70
2021/01/17 04:01:15;;;;;;;97.15;54.05;;;51.50;1766.40;;;;;;4916916;29;20493;-70
2021/01/17 04:03:41;;;;;;;71.72;42.08;;;51.70;1740.80;;;;;;4916675;29;20054;-70
2021/01/17 04:06:07;;;;;;;71.57;36.28;;;26.20;1792.00;;;;;;4916520;29;20063;-70
2021/01/17 04:08:33;;;;;;;57.40;33.78;;;26.10;1817.60;;;;;;4916607;29;20043;-71
2021/01/17 04:10:59;;;;;;;54.03;32.80;;;;;;;;;;4916616;29;20052;-68
2021/01/17 04:13:25;;;;;;;43.97;29.38;;;51.40;1766.40;;;;;;4916778;29;20036;-72
2021/01/17 04:15:51;;;;;;;51.63;30.05;;;51.60;1740.80;;;;;;4916434;29;20167;-72
2021/01/17 04:18:16;;;;;;;43.17;27.00;;;51.80;2227.20;;;;;;4916798;29;20024;-72
2021/01/17 04:20:42;;;;;;;48.38;29.83;;;51.30;1766.40;;;;;;4916491;29;20039;-71
2021/01/17 04:23:08;;;;;;;60.28;35.88;;;51.20;1766.40;;;;;;4916838;29;20028;-72
2021/01/17 04:25:35;;;;;;;50.63;31.00;;;51.40;1740.80;;;;;;4915958;29;20028;-73
2021/01/17 04:28:00;;;;;;;54.25;33.90;;;26.20;1766.40;;;;;;4916808;29;20075;-71
2021/01/17 04:30:34;;;;;;;45.00;30.08;;;25.80;1843.20;;;;;;4916347;29;20032;-69
2021/01/17 04:32:59;;;;;;;59.53;34.03;;;26.20;1792.00;;;;;;4916513;29;20040;-72
2021/01/17 04:35:25;;;;;;;57.13;34.22;;;51.30;1766.40;;;;;;4915986;29;20054;-71
2021/01/17 04:37:51;;;;;;;50.95;30.65;;;51.60;1740.80;;;;;;4916334;29;20039;-71
2021/01/17 04:40:17;;;;;;;50.15;32.72;;;51.70;1715.20;;;;;;4916651;29;20028;-69
2021/01/17 04:42:48;;;;;;;44.67;28.30;;;51.90;1715.20;;;;;;4916438;29;20163;-69
2021/01/17 04:45:17;;;;;;;46.67;29.67;;;51.60;1715.20;;;;;;4916553;29;20103;-69
2021/01/17 04:47:47;;;;;;;50.75;30.42;;;51.30;1766.40;;;;;;4917501;29;20021;-69
2021/01/17 04:50:16;;;;;;;70.60;40.63;;;26.20;1766.40;;;;;;4920249;29;20024;-69
2021/01/17 04:52:54;;;;;;;59.50;34.38;;;26.50;1766.40;;;;;;4919961;29;20119;-68
2021/01/17 04:55:23;;;;;;;57.95;35.78;;;26.50;1740.80;;;;;;4919878;29;20035;-69
2021/01/17 04:58:01;;;;;;;60.88;36.25;;;26.30;1766.40;;;;;;4920093;29;20363;-69
2021/01/17 05:00:32;;;;;;;66.10;39.83;;;26.20;1766.40;;;;;;4919808;29;20063;-69
2021/01/17 05:03:01;;;;;;;56.50;33.38;;;26.20;1792.00;;;;;;4919779;29;20075;-70
2021/01/17 05:05:34;;;;;;;79.82;43.95;;;25.70;1843.20;;;;;;4919882;29;20059;-70
2021/01/17 05:08:28;;;;;;;52.17;32.30;;;0.80;1894.40;;;;;;4919886;29;20072;-71
2021/01/17 05:11:05;;;;;;;56.92;34.40;;;0.70;1920.00;;;;;;4919730;29;20080;-69
2021/01/17 05:13:47;;;;;;;70.25;40.97;;;0.80;1894.40;;;;;;4919670;29;20036;-70
2021/01/17 05:16:15;;;;;;;54.72;32.80;;;0.70;1894.40;;;;;;4919604;29;20039;-70
2021/01/17 05:18:47;;;;;;;68.45;41.45;;;0.90;1894.40;;;;;;4919851;29;20483;-70
2021/01/17 05:21:19;;;;;;;72.38;46.05;;;0.90;1894.40;;;;;;4919688;29;20151;-71
2021/01/17 05:23:46;;;;;;;;;;;0.90;1894.40;;;;;;4920261;29;20391;-72
2021/01/17 05:26:13;;;;;;;56.35;33.45;;;25.90;1843.20;;;;;;4919617;29;19915;-71
2021/01/17 05:28:39;;;;;;;47.97;31.25;;;0.90;1868.80;;;;;;4919312;29;20032;-72
2021/01/17 05:31:04;;;;;;;45.35;28.40;;;25.60;1868.80;;;;;;4919672;29;20121;-72
2021/01/17 05:33:32;;;;;;;49.08;30.73;;;0.80;1894.40;;;;;;4919132;29;20047;-73
2021/01/17 05:35:59;;;;;;;58.50;35.65;;;0.80;1894.40;;;;;;4919164;29;20063;-72
2021/01/17 05:38:25;;;;;;;51.63;30.25;;;0.80;1894.40;;;;;;4919170;29;20386;-73
2021/01/17 05:40:52;;;;;;;58.45;32.97;;;0.80;1894.40;;;;;;4919107;29;20055;-72
2021/01/17 05:43:18;;;;;;;63.13;34.83;;;0.60;1920.00;;;;;;4919604;29;20383;-72
2021/01/17 05:45:44;;;;;;;65.55;35.17;;;0.60;1920.00;;;;;;4919024;29;20031;-72
2021/01/17 05:48:10;;;;;;;75.93;41.20;;;25.60;1894.40;;;;;;4919357;29;20060;-71
2021/01/17 05:50:41;;;;;;;77.40;42.17;;;25.60;1868.80;;;;;;4918993;29;20034;-73
2021/01/17 05:53:07;;;;;;;84.83;45.77;;;25.80;1868.80;;;;;;4919138;29;20039;-71
2021/01/17 05:55:42;;;;;;;96.00;51.50;;;25.80;1868.80;;;;;;4918744;29;20028;-72
2021/01/17 05:58:25;;;;;;;101.00;53.58;;;26.20;1817.60;;;;;;4918429;29;20032;-72
2021/01/17 06:00:57;;;;;;;86.13;49.08;;;51.30;1792.00;;;;;;4919203;29;20092;-70
2021/01/17 06:03:32;;;;;;;81.22;46.20;;;51.20;1792.00;;;;;;4918798;29;20028;-69
2021/01/17 06:06:05;;;;;;;92.68;54.55;;;26.40;1766.40;;;;;;4918503;29;20103;-70
2021/01/17 06:08:32;;;;;;;85.05;49.67;;;51.40;1740.80;;;;;;4918881;29;20043;-69
2021/01/17 06:11:08;;;;;;;75.57;47.65;;;51.50;1740.80;;;;;;4918679;29;20527;-70
2021/01/17 06:13:36;;;;;;;87.85;55.17;;;51.30;1766.40;;;;;;4918769;29;20071;-70
2021/01/17 06:16:02;;;;;;;98.32;57.35;;;26.50;1740.80;;;;;;4918566;29;20035;-70
2021/01/17 06:18:30;;;;;;;76.95;45.80;;;51.20;1766.40;;;;;;4918543;29;20479;-69
2021/01/17 06:20:58;;;;;;;76.07;46.63;;;26.30;1766.40;;;;;;4918725;29;20020;-68
2021/01/17 06:23:24;;;;;;;87.57;55.33;;;25.80;1843.20;;;;;;4918449;29;20024;-69
2021/01/17 06:26:10;;;;;;;83.10;52.35;;;25.70;1843.20;;;;;;4918720;29;20038;-70
2021/01/17 06:28:41;;;;;;;82.20;47.88;;;26.20;1792.00;;;;;;4918380;29;20452;-70
2021/01/17 06:31:09;;;;;;;76.72;41.97;;;25.80;1843.20;;;;;;4918440;29;20031;-68
2021/01/17 06:33:37;;;;;;;95.28;60.72;;;0.90;1894.40;;;;;;4932907;29;20482;-70
2021/01/17 06:36:16;;;;;;;78.93;47.22;;;0.80;1894.40;;;;;;4917762;29;20499;-70
2021/01/17 06:38:43;;;;;;;87.50;53.20;;;0.70;1894.40;;;;;;4918373;29;20040;-70
2021/01/17 06:41:10;;;;;;;85.20;52.28;;;0.80;1894.40;;;;;;4917964;29;20032;-70
2021/01/17 06:43:41;;;;;;;110.22;68.22;;;0.90;1894.40;;;;;;4918134;29;20030;-70
2021/01/17 06:46:08;;;;;;;95.63;57.63;;;25.80;1843.20;;;;;;4918188;29;20031;-72
2021/01/17 06:48:33;;;;;;;102.55;66.00;;;26.20;1792.00;;;;;;4916700;29;20056;-71
2021/01/17 06:51:16;;;;;;;87.30;55.25;;;26.40;1766.40;;;;;;4918202;29;20059;-71
2021/01/17 06:53:51;;;;;;;84.32;50.88;;;51.20;1792.00;;;;;;4917916;29;20035;-71
2021/01/17 06:56:19;;;;;;;74.28;46.13;;;51.60;1740.80;;;;;;4917969;29;20059;-72
2021/01/17 06:58:45;;;;;;;71.13;45.08;;;51.60;1715.20;;;;;;4917908;29;20028;-71
2021/01/17 07:01:11;;;;;;;89.55;55.75;;;51.60;1715.20;;;;;;4917757;29;20028;-70
2021/01/17 07:04:11;;;;;;;97.32;59.63;;;51.70;1715.20;;;;;;4917939;29;20031;-71
2021/01/17 07:07:14;;;;;;;89.68;56.03;;;51.60;1740.80;;;;;;4917842;29;20092;-69
2021/01/17 07:09:58;;;;;;;101.82;65.68;;;26.20;1766.40;;;;;;4916823;29;20028;-73
2021/01/17 07:12:57;;;;;;;130.25;79.50;;;26.10;1817.60;;;;;;4917659;29;20596;-73
2021/01/17 07:15:36;;;;;;;96.85;61.20;;;51.30;1766.40;;;;;;4917345;29;20036;-71
2021/01/17 07:18:03;;;;;;;113.88;68.78;;;26.30;1766.40;;;;;;4917769;29;20035;-71
2021/01/17 07:20:33;;;;;;;73.82;50.47;;;26.00;1792.00;;;;;;4917497;29;20479;-71
2021/01/17 07:23:00;;;;;;;153.90;92.15;;;25.60;1843.20;;;;;;4917674;29;20387;-70
2021/01/17 07:25:27;;;;;;;328.95;174.05;;;25.60;1843.20;;;;;;4917452;29;20036;-71
2021/01/17 07:28:03;;;;;;;228.20;135.32;;;25.60;1843.20;;;;;;4917200;29;20498;-70
2021/01/17 07:31:06;;;;;;;182.38;103.38;;;25.70;1843.20;;;;;;4917432;29;20032;-71
2021/01/17 07:33:36;;;;;;;84.93;51.05;;;26.00;1817.60;;;;;;4917181;29;20039;-72
2021/01/17 07:36:13;;;;;;;105.50;64.05;;;25.70;1843.20;;;;;;4916699;29;20091;-70
2021/01/17 07:38:45;;;;;;;255.95;173.27;;;25.60;1843.20;;;;;;4917272;29;20066;-70
2021/01/17 07:41:12;;;;;;;116.40;70.63;;;25.60;1868.80;;;;;;4917120;29;20028;-71
2021/01/17 07:43:39;;;;;;;91.72;54.95;;;25.90;1817.60;;;;;;4916780;29;20028;-70
2021/01/17 07:46:08;;;;;;;112.40;73.85;;;25.90;1817.60;;;;;;4916016;29;20407;-70
2021/01/17 07:48:34;;;;;;;79.03;49.70;;;26.20;1766.40;;;;;;4916765;29;20064;-72
2021/01/17 07:51:03;;;;;;;89.97;58.20;;;25.80;1817.60;;;;;;4917035;29;20062;-72
2021/01/17 07:53:39;;;;;;;86.35;54.50;;;25.80;1843.20;;;;;;4916881;29;20104;-71
2021/01/17 07:56:17;;;;;;;122.05;77.40;;;;;;;;;;4917000;29;20020;-69
2021/01/17 07:58:48;;;;;;;125.75;75.60;;;51.40;1792.00;;;;;;4916822;29;20032;-69
2021/01/17 08:01:33;;;;;;;122.20;74.18;;;;;;;;;;4916749;29;20027;-69
2021/01/17 08:04:05;;;;;;;126.15;81.93;;;51.60;1766.40;;;;;;4916827;29;20024;-72
2021/01/17 08:06:37;;;;;;;139.63;89.22;;;52.00;1740.80;;;;;;4916904;29;20051;-72
2021/01/17 08:09:05;;;;;;;;;;;76.90;1715.20;;;;;;4916989;29;20024;-72
2021/01/17 08:11:51;;;;;;;86.38;55.47;;;76.90;1689.60;;;;;;4916673;29;19907;-72
2021/01/17 08:14:17;;;;;;;101.03;64.60;;;51.40;1792.00;;;;;;4916239;29;20410;-71
2021/01/17 08:17:06;;;;;;;115.10;71.20;;;26.40;1817.60;;;;;;4916791;29;20024;-71
2021/01/17 08:19:55;;;;;;;115.53;78.32;;;26.50;1817.60;;;;;;4916718;29;20428;-72
2021/01/17 08:22:23;;;;;;;121.57;79.68;;;;;;;;;;4916317;29;20036;-73
2021/01/17 08:24:57;;;;;;;123.05;79.13;;;76.90;1740.80;;;;;;4916481;29;20494;-73
2021/01/17 08:30:00;;;;;;;146.23;108.57;;;77.20;1715.20;;;;;;4916512;29;20144;-72
2021/01/17 08:32:29;;;;;;;;;;;77.40;1689.60;;;;;;4916906;29;20024;-72
2021/01/17 08:34:54;;;;;;;95.80;60.40;;;76.90;1715.20;;;;;;4916075;29;19930;-71
2021/01/17 08:37:21;;;;;;;132.73;79.97;;;77.30;1689.60;;;;;;4916635;29;20048;-70
2021/01/17 08:39:50;;;;;;;132.23;81.18;;;77.70;1664.00;;;;;;4916475;29;20521;-69
2021/01/17 08:42:32;;;;;;;148.27;89.05;;;102.40;1638.40;;;;;;4916200;29;20084;-72
2021/01/17 08:44:59;;;;;;;107.15;66.55;;;102.60;1612.80;;;;;;4916576;29;20115;-71
2021/01/17 08:47:25;;;;;;;85.00;52.38;;;102.50;1638.40;;;;;;4916426;29;20036;-72
2021/01/17 08:49:52;;;;;;;104.97;71.45;;;77.50;1664.00;;;;;;4916176;29;20109;-72
2021/01/17 08:52:26;;;;;;;94.45;62.28;;;102.40;1664.00;;;;;;4916289;29;20028;-71
2021/01/17 08:54:52;;;;;;;98.85;62.03;;;77.70;1638.40;;;;;;4916191;29;20036;-71
2021/01/17 08:57:43;;;;;;;96.25;61.30;;;77.60;1664.00;;;;;;4916377;29;20028;-73
2021/01/17 09:00:16;;;;;;;85.47;54.22;;;77.60;1689.60;;;;;;4916237;29;20509;-72
2021/01/17 09:02:42;;;;;;;81.70;50.53;;;102.50;1664.00;;;;;;4916151;29;20044;-71
2021/01/17 09:05:18;;;;;;;92.50;59.78;;;102.50;1612.80;;;;;;4916444;29;20105;-71
2021/01/17 09:07:45;;;;;;;127.22;77.55;;;77.60;1715.20;;;;;;4915878;29;20040;-70
2021/01/17 09:10:16;;;;;;;96.68;62.42;;;102.50;1689.60;;;;;;4916114;29;20119;-70
2021/01/17 09:12:42;;;;;;;102.20;66.22;;;102.60;1638.40;;;;;;4915798;29;20043;-70
2021/01/17 09:15:20;;;;;;;91.28;63.00;;;102.90;1612.80;;;;;;4915738;29;20032;-70
2021/01/17 09:18:00;;;;;;;79.68;54.40;;;102.80;1612.80;;;;;;4916237;29;20028;-69
2021/01/17 09:20:26;;;;;;;85.55;64.07;;;103.00;1612.80;;;;;;4915969;29;20116;-70
2021/01/17 09:22:55;;;;;;;99.70;75.43;;;103.00;1587.20;;;;;;4916012;29;20056;-70
2021/01/17 09:25:22;;;;;;;73.85;47.00;;;102.70;1612.80;;;;;;4916115;29;20373;-69
2021/01/17 09:27:50;;;;;;;52.10;33.63;;;77.30;1715.20;;;;;;4915853;29;20039;-70
2021/01/17 09:30:16;;;;;;;49.33;32.45;;;76.90;1792.00;;;;;;4915968;29;20036;-70
2021/01/17 09:32:43;;;;;;;64.97;40.55;;;52.10;1817.60;;;;;;4915742;29;20024;-70
2021/01/17 09:35:09;;;;;;;68.43;47.67;;;76.80;1817.60;;;;;;4919101;29;20051;-70
2021/01/17 09:37:35;;;;;;;58.33;40.90;;;77.50;1740.80;;;;;;4918927;29;20032;-71
2021/01/17 09:40:02;;;;;;;54.38;35.28;;;102.50;1689.60;;;;;;4919378;29;20032;-71
2021/01/17 09:42:28;;;;;;;58.65;35.10;;;102.80;1612.80;;;;;;4918937;29;20024;-71
2021/01/17 09:45:07;;;;;;;52.47;33.72;;;103.10;1587.20;;;;;;4919048;29;20028;-70
2021/01/17 09:47:36;;;;;;;80.63;49.05;;;102.90;1612.80;;;;;;4919126;29;20042;-74
2021/01/17 09:50:09;;;;;;;76.15;48.53;;;103.10;1612.80;;;;;;4918643;29;20028;-73
2021/01/17 09:52:41;;;;;;;75.80;53.92;;;103.20;1612.80;;;;;;4919075;29;20032;-72
2021/01/17 09:55:09;;;;;;;74.45;50.35;;;103.20;1612.80;;;;;;4919098;29;20044;-73
2021/01/17 09:57:39;;;;;;;52.50;34.55;;;103.30;1612.80;;;;;;4918942;29;20294;-72
2021/01/17 10:00:21;;;;;;;50.30;34.17;;;103.10;1587.20;;;;;;4918862;29;20039;-72
2021/01/17 10:02:48;;;;;;;56.65;38.95;;;77.70;1740.80;;;;;;4918777;29;20020;-72
2021/01/17 10:05:33;;;;;;;61.60;40.55;;;102.50;1715.20;;;;;;4918825;29;20422;-72
2021/01/17 10:08:10;;;;;;;50.38;32.40;;;102.80;1689.60;;;;;;4918887;29;20028;-73
2021/01/17 10:10:41;;;;;;;67.90;44.45;;;102.90;1664.00;;;;;;4918811;29;20028;-74
2021/01/17 10:13:07;;;;;;;69.67;46.90;;;102.90;1664.00;;;;;;4918661;29;20055;-75
2021/01/17 10:15:35;;;;;;;60.95;39.33;;;103.20;1612.80;;;;;;4918574;29;20032;-73
2021/01/17 10:18:01;;;;;;;85.55;57.50;;;103.20;1612.80;;;;;;4918338;29;20059;-73
2021/01/17 10:20:31;;;;;;;87.95;58.47;;;128.00;1638.40;;;;;;4918840;29;20064;-72
2021/01/17 10:23:05;;;;;;;111.60;65.43;;;103.30;1612.80;;;;;;4918244;29;20031;-73
2021/01/17 10:25:33;;;;;;;145.45;80.80;;;128.10;1612.80;;;;;;4918494;29;20120;-74
2021/01/17 10:28:01;;;;;;;113.35;66.03;;;103.30;1612.80;;;;;;4916966;29;20025;-70
2021/01/17 10:30:28;;;;;;;80.55;54.50;;;128.10;1612.80;;;;;;4917947;29;20039;-70
2021/01/17 10:33:02;;;;;;;42.55;30.85;;;128.00;1638.40;;;;;;4917636;29;20016;-70
2021/01/17 10:35:30;;;;;;;86.70;68.30;;;103.20;1561.60;;;;;;4917563;29;20130;-71
2021/01/17 10:37:57;;;;;;;85.75;67.25;;;128.00;1612.80;;;;;;4917887;29;20024;-70
2021/01/17 10:40:26;;;;;;;44.78;29.58;;;128.10;1587.20;;;;;;4917756;29;20035;-73
2021/01/17 10:42:54;;;;;;;53.30;39.42;;;103.00;1561.60;;;;;;4917708;29;20383;-71
2021/01/17 10:45:20;;;;;;;46.80;33.95;;;102.40;1689.60;;;;;;4917485;29;20099;-68
2021/01/17 10:48:00;;;;;;;39.45;23.38;;;102.80;1638.40;;;;;;4917653;29;20039;-65
2021/01/17 10:50:26;;;;;;;40.38;25.42;;;77.60;1715.20;;;;;;4917709;29;20023;-66
2021/01/17 10:53:02;;;;;;;38.60;25.27;;;77.60;1689.60;;;;;;4917399;29;20261;-70
2021/01/17 10:55:36;;;;;;;27.92;18.20;;;77.70;1689.60;;;;;;4917521;29;20036;-68
2021/01/17 10:58:05;;;;;;;31.52;20.63;;;77.30;1766.40;;;;;;4917372;29;20046;-68
2021/01/17 11:00:31;;;;;;;40.80;25.85;;;76.90;1792.00;;;;;;4917250;29;20107;-68
2021/01/17 11:03:05;;;;;;;37.08;24.55;;;76.90;1817.60;;;;;;4917453;29;20566;-68
2021/01/17 11:05:31;;;;;;;54.40;36.65;;;77.50;1740.80;;;;;;4915408;29;20043;-66
2021/01/17 11:07:57;;;;;;;40.05;23.75;;;77.70;1689.60;;;;;;4916112;29;20028;-68
2021/01/17 11:10:24;;;;;;;29.45;20.17;;;77.70;1664.00;;;;;;4916965;29;20499;-71
2021/01/17 11:12:50;;;;;;;32.75;21.25;;;77.20;1740.80;;;;;;4915731;29;20024;-71
2021/01/17 11:15:19;;;;;;;39.60;24.60;;;76.90;1792.00;;;;;;4916911;29;20028;-75
2021/01/17 11:17:52;;;;;;;59.13;37.10;;;77.10;1792.00;;;;;;4916912;29;20467;-69
2021/01/17 11:20:24;;;;;;;38.25;23.58;;;77.50;1766.40;;;;;;4917123;29;20036;-69
2021/01/17 11:22:52;;;;;;;39.17;25.92;;;77.70;1664.00;;;;;;4917430;29;20095;-67
2021/01/17 11:25:19;;;;;;;40.67;24.45;;;102.70;1638.40;;;;;;4915413;29;20060;-69
2021/01/17 11:27:46;;;;;;;53.60;35.13;;;102.80;1638.40;;;;;;4917080;29;20055;-69
2021/01/17 11:30:14;;;;;;;34.88;22.23;;;102.90;1612.80;;;;;;4917247;29;20398;-68
2021/01/17 11:32:40;;;;;;;47.13;28.65;;;102.60;1612.80;;;;;;4917121;29;20077;-70
2021/01/17 11:35:25;;;;;;;36.13;22.23;;;102.60;1638.40;;;;;;4916816;29;20048;-68
2021/01/17 11:37:51;;;;;;;27.08;17.25;;;102.60;1612.80;;;;;;4916277;29;20487;-69
2021/01/17 11:40:20;;;;;;;52.60;35.42;;;77.40;1740.80;;;;;;4916988;29;20111;-70
2021/01/17 11:42:46;;;;;;;52.33;36.13;;;;;;;;;;4917468;29;20020;-70
2021/01/17 11:45:20;;;;;;;31.23;20.13;;;76.90;1817.60;;;;;;4917758;29;20032;-70
2021/01/17 11:47:56;;;;;;;36.70;26.38;;;76.90;1843.20;;;;;;4917578;29;20076;-70
2021/01/17 11:50:22;;;;;;;39.40;25.85;;;76.80;1868.80;;;;;;4917427;29;20028;-70
2021/01/17 11:52:56;;;;;;;89.88;65.53;;;76.90;1843.20;;;;;;4917349;29;20035;-71
2021/01/17 11:55:23;;;;;;;75.30;56.78;;;77.40;1766.40;;;;;;4917414;29;20058;-70
2021/01/17 11:57:49;;;;;;;49.55;34.88;;;77.10;1766.40;;;;;;4917189;29;20048;-70
2021/01/17 12:00:15;;;;;;;52.05;34.13;;;76.80;1843.20;;;;;;4917259;29;20054;-70
2021/01/17 12:02:41;;;;;;;31.23;20.25;;;76.90;1868.80;;;;;;4915887;29;20029;-70
2021/01/17 12:05:08;;;;;;;43.00;27.00;;;52.10;1868.80;;;;;;4907554;29;20047;-70
2021/01/17 12:07:34;;;;;;;48.25;29.13;;;76.90;1843.20;;;;;;4912268;29;20098;-70
2021/01/17 12:10:12;;;;;;;75.03;43.08;;;77.10;1817.60;;;;;;4913918;29;20028;-70
2021/01/17 12:12:39;;;;;;;75.05;44.90;;;77.30;1792.00;;;;;;4917074;29;20024;-69
2021/01/17 12:15:09;;;;;;;82.22;46.95;;;77.00;1843.20;;;;;;4916785;29;20064;-70
2021/01/17 12:17:35;;;;;;;52.55;34.17;;;102.40;1792.00;;;;;;4917082;29;20032;-71
2021/01/17 12:20:01;;;;;;;62.58;37.47;;;77.50;1792.00;;;;;;4917084;29;20028;-70
2021/01/17 12:22:27;;;;;;;122.10;61.00;;;77.10;1843.20;;;;;;4917239;29;20031;-70
2021/01/17 12:24:53;;;;;;;87.18;47.65;;;77.10;1843.20;;;;;;4917065;29;20036;-69